createdAt,value
2022-07-30T00:00:36.780Z,101296.88
2022-07-30T00:03:03.338Z,101295.25
2022-07-30T00:05:29.769Z,101300.47
2022-07-30T00:07:56.192Z,101307.53
2022-07-30T00:10:23.119Z,101303.09
2022-07-30T00:12:49.819Z,101298.59
2022-07-30T00:15:16.236Z,101302.94
2022-07-30T00:17:42.572Z,101301.97
2022-07-30T00:20:13.248Z,101293.88
2022-07-30T00:22:40.367Z,101289.03
2022-07-30T00:25:07.239Z,101298.13
2022-07-30T00:27:35.108Z,101295.66
2022-07-30T00:30:03.775Z,101285.03
2022-07-30T00:32:30.185Z,101274.03
2022-07-30T00:34:56.556Z,101273.84
2022-07-30T00:37:23.126Z,101267.19
2022-07-30T00:39:49.695Z,101267.44
2022-07-30T00:42:17.641Z,101264.91
2022-07-30T00:44:43.991Z,101257.72
2022-07-30T00:47:10.371Z,101261.34
2022-07-30T00:49:39.303Z,101259.88
2022-07-30T00:52:07.834Z,101261.84
2022-07-30T00:54:34.195Z,101262.91
2022-07-30T00:57:00.774Z,101262.66
2022-07-30T00:59:31.514Z,101262.50
2022-07-30T01:02:00.434Z,101259.03
2022-07-30T01:04:27.066Z,101256.28
2022-07-30T01:06:53.460Z,101249.41
2022-07-30T01:09:19.900Z,101253.09
2022-07-30T01:11:46.247Z,101252.50
2022-07-30T01:14:12.849Z,101256.09
2022-07-30T01:16:42.637Z,101262.31
2022-07-30T01:19:38.509Z,101258.81
2022-07-30T01:22:14.527Z,101261.53
2022-07-30T01:24:47.379Z,101262.47
2022-07-30T01:27:18.062Z,101251.03
2022-07-30T01:29:47.290Z,101251.69
2022-07-30T01:32:19.031Z,101249.31
2022-07-30T01:34:46.772Z,101255.53
2022-07-30T01:37:15.433Z,101255.47
2022-07-30T01:39:42.627Z,101258.47
2022-07-30T01:42:10.646Z,101253.41
2022-07-30T01:44:39.067Z,101256.06
2022-07-30T01:47:08.578Z,101260.28
2022-07-30T01:49:36.451Z,101252.09
2022-07-30T01:52:04.489Z,101250.41
2022-07-30T01:54:33.176Z,101256.59
2022-07-30T01:57:01.381Z,101251.28
2022-07-30T01:59:30.331Z,101252.38
2022-07-30T02:01:56.730Z,101250.69
2022-07-30T02:04:23.276Z,101245.91
2022-07-30T02:07:03.069Z,101250.28
2022-07-30T02:09:36.065Z,101241.25
2022-07-30T02:12:22.904Z,101238.00
2022-07-30T02:14:56.398Z,101247.28
2022-07-30T02:17:30.381Z,101246.75
2022-07-30T02:20:04.690Z,101249.59
2022-07-30T02:22:39.412Z,101244.47
2022-07-30T02:25:08.865Z,101249.06
2022-07-30T02:27:38.830Z,101248.41
2022-07-30T02:30:05.946Z,101251.91
2022-07-30T02:32:38.657Z,101246.47
2022-07-30T02:35:11.465Z,101235.06
2022-07-30T02:37:42.967Z,101241.09
2022-07-30T02:40:14.026Z,101237.59
2022-07-30T02:42:42.015Z,101237.72
2022-07-30T02:45:09.763Z,101237.91
2022-07-30T02:47:38.254Z,101245.06
2022-07-30T02:50:06.760Z,101246.00
2022-07-30T02:52:35.128Z,101249.44
2022-07-30T02:55:03.063Z,101250.31
2022-07-30T02:57:30.973Z,101246.63
2022-07-30T02:59:58.480Z,101243.06
2022-07-30T03:02:29.092Z,101259.66
2022-07-30T03:04:58.757Z,101254.53
2022-07-30T03:07:27.015Z,101254.50
2022-07-30T03:09:55.851Z,101252.63
2022-07-30T03:12:25.630Z,101259.50
2022-07-30T03:14:52.226Z,101259.47
2022-07-30T03:17:19.828Z,101256.78
2022-07-30T03:19:49.268Z,101257.59
2022-07-30T03:22:19.006Z,101256.56
2022-07-30T03:24:47.645Z,101250.47
2022-07-30T03:27:16.154Z,101251.44
2022-07-30T03:29:45.768Z,101262.41
2022-07-30T03:32:13.863Z,101263.38
2022-07-30T03:34:42.132Z,101257.25
2022-07-30T03:37:10.926Z,101255.47
2022-07-30T03:39:38.428Z,101250.94
2022-07-30T03:42:07.814Z,101263.19
2022-07-30T03:44:35.013Z,101253.75
2022-07-30T03:47:03.320Z,101249.09
2022-07-30T03:49:30.006Z,101259.88
2022-07-30T03:51:57.499Z,101254.94
2022-07-30T03:54:24.938Z,101256.88
2022-07-30T03:56:51.471Z,101261.38
2022-07-30T03:59:18.044Z,101263.00
2022-07-30T04:01:44.493Z,101258.56
2022-07-30T04:04:11.335Z,101263.00
2022-07-30T04:06:42.825Z,101263.16
2022-07-30T04:09:11.108Z,101264.03
2022-07-30T04:11:41.343Z,101263.19
2022-07-30T04:14:08.675Z,101254.66
2022-07-30T04:16:50.185Z,101262.28
2022-07-30T04:19:22.036Z,101264.78
2022-07-30T04:21:50.767Z,101264.00
2022-07-30T04:24:18.727Z,101265.59
2022-07-30T04:26:46.234Z,101266.66
2022-07-30T04:29:13.850Z,101268.25
2022-07-30T04:31:44.314Z,101270.22
2022-07-30T04:34:15.013Z,101265.94
2022-07-30T04:36:42.475Z,101272.16
2022-07-30T04:39:10.061Z,101275.88
2022-07-30T04:41:48.773Z,101268.94
2022-07-30T04:44:17.561Z,101286.53
2022-07-30T04:46:44.202Z,101281.38
2022-07-30T04:49:12.580Z,101283.66
2022-07-30T04:51:40.288Z,101280.00
2022-07-30T04:54:15.264Z,101282.25
2022-07-30T04:56:53.262Z,101276.88
2022-07-30T04:59:23.419Z,101277.75
2022-07-30T05:01:50.474Z,101275.94
2022-07-30T05:04:18.335Z,101269.94
2022-07-30T05:06:45.602Z,101276.19
2022-07-30T05:09:12.366Z,101285.97
2022-07-30T05:11:38.779Z,101280.56
2022-07-30T05:14:05.227Z,101274.19
2022-07-30T05:16:33.987Z,101275.50
2022-07-30T05:19:00.529Z,101285.63
2022-07-30T05:21:29.038Z,101281.69
2022-07-30T05:23:56.626Z,101276.72
2022-07-30T05:26:27.879Z,101276.50
2022-07-30T05:28:55.972Z,101273.47
2022-07-30T05:31:24.198Z,101269.34
2022-07-30T05:33:51.606Z,101270.72
2022-07-30T05:36:18.980Z,101274.72
2022-07-30T05:38:45.592Z,101281.41
2022-07-30T05:41:31.840Z,101266.09
2022-07-30T05:43:58.333Z,101269.31
2022-07-30T05:46:24.818Z,101268.88
2022-07-30T05:48:51.297Z,101270.50
2022-07-30T05:51:19.613Z,101267.66
2022-07-30T05:53:46.188Z,101269.09
2022-07-30T05:56:12.615Z,101268.84
2022-07-30T05:58:38.974Z,101275.69
2022-07-30T06:01:05.545Z,101269.84
2022-07-30T06:03:31.905Z,101272.94
2022-07-30T06:05:58.358Z,101274.44
2022-07-30T06:08:24.762Z,101280.97
2022-07-30T06:10:51.124Z,101269.00
2022-07-30T06:13:17.464Z,101267.63
2022-07-30T06:15:43.841Z,101266.88
2022-07-30T06:18:10.246Z,101260.63
2022-07-30T06:20:36.682Z,101255.53
2022-07-30T06:23:03.085Z,101253.03
2022-07-30T06:25:29.558Z,101253.16
2022-07-30T06:27:57.610Z,101255.06
2022-07-30T06:30:30.297Z,101256.78
2022-07-30T06:32:57.686Z,101255.00
2022-07-30T06:35:24.025Z,101258.03
2022-07-30T06:38:06.370Z,101256.56
2022-07-30T06:40:34.557Z,101254.69
2022-07-30T06:43:00.954Z,101262.06
2022-07-30T06:45:27.301Z,101251.41
2022-07-30T06:47:58.591Z,101260.25
2022-07-30T06:50:25.924Z,101253.16
2022-07-30T06:52:52.535Z,101248.81
2022-07-30T06:55:19.017Z,101252.59
2022-07-30T06:57:45.438Z,101255.06
2022-07-30T07:00:12.231Z,101248.09
2022-07-30T07:02:39.195Z,101250.41
2022-07-30T07:05:07.187Z,101252.09
2022-07-30T07:07:42.045Z,101267.44
2022-07-30T07:10:11.243Z,101255.16
2022-07-30T07:12:37.635Z,101253.28
2022-07-30T07:15:05.121Z,101259.22
2022-07-30T07:17:31.802Z,101248.97
2022-07-30T07:20:01.074Z,101249.97
2022-07-30T07:22:29.039Z,101249.28
2022-07-30T07:24:55.485Z,101250.66
2022-07-30T07:27:22.076Z,101248.28
2022-07-30T07:30:05.011Z,101250.59
2022-07-30T07:32:32.948Z,101250.28
2022-07-30T07:34:59.294Z,101251.09
2022-07-30T07:37:25.776Z,101255.81
2022-07-30T07:39:52.232Z,101252.41
2022-07-30T07:42:18.607Z,101250.34
2022-07-30T07:44:44.944Z,101259.53
2022-07-30T07:47:11.458Z,101255.19
2022-07-30T07:49:37.788Z,101253.47
2022-07-30T07:52:04.456Z,101254.25
2022-07-30T07:54:30.835Z,101251.75
2022-07-30T07:56:57.218Z,101261.91
2022-07-30T07:59:31.006Z,101265.47
2022-07-30T08:02:06.348Z,101262.06
2022-07-30T08:04:34.402Z,101261.09
2022-07-30T08:07:00.930Z,101260.72
2022-07-30T08:09:27.461Z,101254.34
2022-07-30T08:12:10.313Z,101253.41
2022-07-30T08:14:36.646Z,101255.16
2022-07-30T08:17:03.314Z,101256.31
2022-07-30T08:19:29.787Z,101252.56
2022-07-30T08:21:57.074Z,101257.75
2022-07-30T08:24:23.374Z,101257.00
2022-07-30T08:26:49.865Z,101254.59
2022-07-30T08:29:17.352Z,101259.50
2022-07-30T08:31:43.827Z,101251.19
2022-07-30T08:34:10.276Z,101250.66
2022-07-30T08:36:36.662Z,101256.44
2022-07-30T08:39:03.221Z,101249.75
2022-07-30T08:41:30.824Z,101260.44
2022-07-30T08:44:00.013Z,101261.16
2022-07-30T08:46:31.313Z,101258.16
2022-07-30T08:49:00.554Z,101265.53
2022-07-30T08:51:35.356Z,101269.34
2022-07-30T08:54:03.412Z,101266.13
2022-07-30T08:56:30.212Z,101270.28
2022-07-30T08:58:57.902Z,101267.56
2022-07-30T09:01:24.231Z,101274.81
2022-07-30T09:03:50.646Z,101266.25
2022-07-30T09:06:17.162Z,101271.88
2022-07-30T09:08:43.842Z,101272.03
2022-07-30T09:11:10.716Z,101275.00
2022-07-30T09:13:41.539Z,101280.56
2022-07-30T09:16:19.507Z,101280.91
2022-07-30T09:18:45.909Z,101280.16
2022-07-30T09:21:23.247Z,101283.94
2022-07-30T09:24:10.781Z,101287.06
2022-07-30T09:26:57.304Z,101289.38
2022-07-30T09:29:26.369Z,101296.25
2022-07-30T09:31:53.992Z,101296.81
2022-07-30T09:34:34.119Z,101290.75
2022-07-30T09:37:04.104Z,101290.59
2022-07-30T09:39:35.744Z,101288.16
2022-07-30T09:42:04.994Z,101294.22
2022-07-30T09:44:31.731Z,101294.97
2022-07-30T09:46:58.869Z,101297.78
2022-07-30T09:49:27.654Z,101294.44
2022-07-30T09:51:57.545Z,101303.31
2022-07-30T09:54:51.887Z,101298.81
2022-07-30T09:57:25.487Z,101295.97
2022-07-30T09:59:53.960Z,101297.28
2022-07-30T10:02:28.293Z,101295.69
2022-07-30T10:04:54.706Z,101299.44
2022-07-30T10:07:25.020Z,101286.72
2022-07-30T10:09:53.210Z,101290.56
2022-07-30T10:12:24.018Z,101291.13
2022-07-30T10:14:53.663Z,101288.41
2022-07-30T10:17:22.048Z,101295.91
2022-07-30T10:19:48.993Z,101292.16
2022-07-30T10:22:17.006Z,101291.19
2022-07-30T10:24:45.220Z,101292.75
2022-07-30T10:27:12.025Z,101288.97
2022-07-30T10:29:42.714Z,101293.72
2022-07-30T10:32:10.489Z,101286.13
2022-07-30T10:34:38.177Z,101291.44
2022-07-30T10:37:11.175Z,101284.81
2022-07-30T10:39:59.249Z,101279.81
2022-07-30T10:42:41.409Z,101280.00
2022-07-30T10:45:18.401Z,101281.78
2022-07-30T10:47:48.531Z,101282.25
2022-07-30T10:50:26.299Z,101279.41
2022-07-30T10:52:55.907Z,101283.44
2022-07-30T10:55:36.948Z,101278.53
2022-07-30T10:58:14.294Z,101276.19
2022-07-30T11:00:51.081Z,101280.16
2022-07-30T11:03:40.365Z,101287.06
2022-07-30T11:06:24.459Z,101285.09
2022-07-30T11:08:51.532Z,101290.28
2022-07-30T11:11:20.789Z,101287.13
2022-07-30T11:14:07.170Z,101286.56
2022-07-30T11:16:34.255Z,101289.59
2022-07-30T11:19:56.467Z,101284.34
2022-07-30T11:22:23.796Z,101282.31
2022-07-30T11:24:50.221Z,101291.38
2022-07-30T11:27:38.206Z,101299.66
2022-07-30T11:30:10.637Z,101290.56
2022-07-30T11:32:37.395Z,101284.66
2022-07-30T11:35:34.545Z,101283.63
2022-07-30T11:38:15.642Z,101286.28
2022-07-30T11:40:45.522Z,101290.50
2022-07-30T11:43:35.175Z,101298.38
2022-07-30T11:46:16.243Z,101293.94
2022-07-30T11:48:56.148Z,101303.56
2022-07-30T11:51:23.689Z,101291.41
2022-07-30T11:54:04.895Z,101297.13
2022-07-30T11:56:31.509Z,101304.41
2022-07-30T11:59:05.100Z,101298.97
2022-07-30T12:01:33.324Z,101297.78
2022-07-30T12:04:04.063Z,101296.53
2022-07-30T12:06:32.000Z,101301.38
2022-07-30T12:08:59.325Z,101298.19
2022-07-30T12:11:31.998Z,101292.88
2022-07-30T12:13:59.952Z,101307.25
2022-07-30T12:16:27.878Z,101311.81
2022-07-30T12:18:55.039Z,101305.53
2022-07-30T12:21:21.864Z,101310.97
2022-07-30T12:23:55.637Z,101305.25
2022-07-30T12:26:33.937Z,101311.44
2022-07-30T12:29:02.783Z,101305.09
2022-07-30T12:31:29.458Z,101302.63
2022-07-30T12:33:58.204Z,101301.47
2022-07-30T12:36:25.963Z,101299.97
2022-07-30T12:38:54.387Z,101298.41
2022-07-30T12:41:21.719Z,101302.91
2022-07-30T12:43:55.979Z,101295.81
2022-07-30T12:46:27.947Z,101301.13
2022-07-30T12:48:57.213Z,101299.28
2022-07-30T12:51:27.866Z,101305.50
2022-07-30T12:53:56.985Z,101305.06
2022-07-30T12:56:25.687Z,101307.84
2022-07-30T12:58:53.163Z,101306.22
2022-07-30T13:01:19.620Z,101308.78
2022-07-30T13:03:46.175Z,101299.06
2022-07-30T13:06:18.770Z,101285.41
2022-07-30T13:08:53.356Z,101290.78
2022-07-30T13:11:22.352Z,101289.63
2022-07-30T13:13:50.133Z,101288.97
2022-07-30T13:16:18.587Z,101285.16
2022-07-30T13:18:46.020Z,101286.00
2022-07-30T13:21:12.574Z,101280.78
2022-07-30T13:23:40.487Z,101281.19
2022-07-30T13:26:09.309Z,101282.13
2022-07-30T13:28:35.825Z,101284.03
2022-07-30T13:31:02.311Z,101276.34
2022-07-30T13:33:28.714Z,101270.69
2022-07-30T13:35:55.351Z,101270.16
2022-07-30T13:38:21.822Z,101272.47
2022-07-30T13:40:48.340Z,101269.16
2022-07-30T13:43:14.992Z,101271.66
2022-07-30T13:45:41.374Z,101269.00
2022-07-30T13:48:07.848Z,101256.28
2022-07-30T13:50:34.242Z,101251.59
2022-07-30T13:53:02.450Z,101251.28
2022-07-30T13:55:29.247Z,101240.91
2022-07-30T13:57:56.177Z,101246.13
2022-07-30T14:00:23.073Z,101251.72
2022-07-30T14:02:49.560Z,101238.66
2022-07-30T14:05:16.111Z,101234.69
2022-07-30T14:07:42.554Z,101231.97
2022-07-30T14:10:09.402Z,101228.81
2022-07-30T14:12:35.809Z,101229.00
2022-07-30T14:15:02.240Z,101229.59
2022-07-30T14:17:28.633Z,101228.66
2022-07-30T14:19:55.039Z,101225.34
2022-07-30T14:22:21.774Z,101228.69
2022-07-30T14:24:48.547Z,101233.59
2022-07-30T14:27:15.095Z,101232.53
2022-07-30T14:29:41.493Z,101223.84
2022-07-30T14:32:07.860Z,101232.25
2022-07-30T14:34:34.202Z,101234.28
2022-07-30T14:37:01.892Z,101236.94
2022-07-30T14:39:28.513Z,101234.91
2022-07-30T14:41:56.109Z,101227.59
2022-07-30T14:44:23.189Z,101228.22
2022-07-30T14:46:52.533Z,101223.53
2022-07-30T14:49:20.084Z,101226.31
2022-07-30T14:51:46.743Z,101222.00
2022-07-30T14:54:13.091Z,101219.34
2022-07-30T14:56:39.768Z,101221.72
2022-07-30T14:59:06.171Z,101222.66
2022-07-30T15:01:32.735Z,101228.66
2022-07-30T15:03:59.665Z,101221.88
2022-07-30T15:06:26.611Z,101224.41
2022-07-30T15:08:53.320Z,101224.38
2022-07-30T15:11:21.849Z,101227.69
2022-07-30T15:13:50.158Z,101227.50
2022-07-30T15:16:18.101Z,101229.31
2022-07-30T15:18:44.823Z,101229.13
2022-07-30T15:21:12.336Z,101232.53
2022-07-30T15:23:38.925Z,101224.06
2022-07-30T15:26:05.272Z,101228.75
2022-07-30T15:28:31.675Z,101233.13
2022-07-30T15:30:58.203Z,101239.75
2022-07-30T15:33:24.595Z,101234.13
2022-07-30T15:35:50.999Z,101231.00
2022-07-30T15:38:17.665Z,101240.38
2022-07-30T15:40:46.513Z,101235.25
2022-07-30T15:43:12.864Z,101233.13
2022-07-30T15:45:55.267Z,101236.31
2022-07-30T15:51:00.806Z,101232.44
2022-07-30T15:53:27.276Z,101238.44
2022-07-30T15:55:53.876Z,101228.91
2022-07-30T15:58:20.236Z,101240.41
2022-07-30T16:00:47.002Z,101237.00
2022-07-30T16:03:13.371Z,101232.88
2022-07-30T16:05:52.237Z,101239.25
2022-07-30T16:08:20.581Z,101230.25
2022-07-30T16:10:47.651Z,101237.19
2022-07-30T16:13:14.129Z,101225.31
2022-07-30T16:15:40.576Z,101236.47
2022-07-30T16:18:07.013Z,101233.72
2022-07-30T16:20:34.739Z,101238.06
2022-07-30T16:23:01.181Z,101230.50
2022-07-30T16:25:27.554Z,101230.38
2022-07-30T16:27:53.974Z,101238.44
2022-07-30T16:30:20.578Z,101229.44
2022-07-30T16:32:46.928Z,101225.94
2022-07-30T16:35:13.630Z,101226.97
2022-07-30T16:37:40.122Z,101231.31
2022-07-30T16:40:06.906Z,101234.78
2022-07-30T16:42:33.320Z,101231.47
2022-07-30T16:44:59.690Z,101240.81
2022-07-30T16:47:26.073Z,101234.81
2022-07-30T16:49:52.524Z,101236.19
2022-07-30T16:52:18.917Z,101237.59
2022-07-30T16:54:45.328Z,101226.78
2022-07-30T16:57:11.660Z,101235.56
2022-07-30T16:59:38.327Z,101242.22
2022-07-30T17:02:05.293Z,101235.75
2022-07-30T17:04:33.604Z,101240.84
2022-07-30T17:06:59.990Z,101242.06
2022-07-30T17:09:26.398Z,101237.56
2022-07-30T17:11:55.891Z,101233.84
2022-07-30T17:14:25.939Z,101229.50
2022-07-30T17:16:52.287Z,101232.31
2022-07-30T17:19:18.703Z,101236.66
2022-07-30T17:21:45.084Z,101239.72
2022-07-30T17:24:13.315Z,101243.09
2022-07-30T17:26:43.020Z,101234.91
2022-07-30T17:29:14.903Z,101246.00
2022-07-30T17:31:43.933Z,101244.16
2022-07-30T17:34:13.501Z,101247.09
2022-07-30T17:36:42.121Z,101248.88
2022-07-30T17:39:18.170Z,101249.91
2022-07-30T17:42:02.759Z,101248.38
2022-07-30T17:44:29.414Z,101253.00
2022-07-30T17:46:55.856Z,101245.56
2022-07-30T17:49:22.268Z,101254.75
2022-07-30T17:51:50.076Z,101248.44
2022-07-30T17:54:16.404Z,101245.69
2022-07-30T17:56:43.828Z,101246.78
2022-07-30T17:59:13.841Z,101247.63
2022-07-30T18:01:40.569Z,101243.47
2022-07-30T18:04:07.044Z,101246.81
2022-07-30T18:06:33.552Z,101257.84
2022-07-30T18:09:00.163Z,101257.50
2022-07-30T18:11:26.537Z,101258.66
2022-07-30T18:13:53.000Z,101264.09
2022-07-30T18:16:19.666Z,101272.16
2022-07-30T18:18:46.013Z,101267.13
2022-07-30T18:21:13.278Z,101263.25
2022-07-30T18:23:39.750Z,101270.25
2022-07-30T18:26:06.101Z,101277.47
2022-07-30T18:28:33.311Z,101269.69
2022-07-30T18:30:59.920Z,101277.00
2022-07-30T18:33:26.270Z,101276.59
2022-07-30T18:35:52.635Z,101277.84
2022-07-30T18:38:19.070Z,101283.88
2022-07-30T18:40:57.353Z,101281.31
2022-07-30T18:43:25.500Z,101291.06
2022-07-30T18:45:52.967Z,101292.63
2022-07-30T18:48:20.031Z,101287.66
2022-07-30T18:50:46.484Z,101293.72
2022-07-30T18:53:15.311Z,101289.63
2022-07-30T18:55:43.082Z,101283.72
2022-07-30T18:58:09.466Z,101291.75
2022-07-30T19:00:36.554Z,101273.84
2022-07-30T19:03:03.591Z,101285.78
2022-07-30T19:05:30.400Z,101290.41
2022-07-30T19:07:57.909Z,101290.84
2022-07-30T19:10:26.114Z,101285.88
2022-07-30T19:12:53.254Z,101288.50
2022-07-30T19:15:19.610Z,101288.16
2022-07-30T19:17:47.044Z,101290.03
2022-07-30T19:20:13.537Z,101289.22
2022-07-30T19:22:41.458Z,101290.19
2022-07-30T19:25:08.339Z,101293.91
2022-07-30T19:27:34.675Z,101293.31
2022-07-30T19:30:01.020Z,101298.94
2022-07-30T19:32:30.054Z,101293.97
2022-07-30T19:34:56.548Z,101301.22
2022-07-30T19:37:22.934Z,101305.50
2022-07-30T19:40:05.220Z,101303.66
2022-07-30T19:42:33.857Z,101313.56
2022-07-30T19:45:01.256Z,101307.94
2022-07-30T19:47:39.350Z,101313.78
2022-07-30T19:50:07.373Z,101315.34
2022-07-30T19:52:35.879Z,101311.13
2022-07-30T19:55:03.761Z,101316.19
2022-07-30T19:57:53.306Z,101311.97
2022-07-30T20:00:24.907Z,101314.69
2022-07-30T20:02:52.059Z,101313.94
2022-07-30T20:05:18.472Z,101311.97
2022-07-30T20:07:45.611Z,101315.78
2022-07-30T20:10:13.022Z,101322.44
2022-07-30T20:15:29.479Z,101323.84
2022-07-30T20:17:56.662Z,101329.41
2022-07-30T20:20:26.037Z,101341.19
2022-07-30T20:22:53.081Z,101338.00
2022-07-30T20:25:19.901Z,101337.91
2022-07-30T20:27:48.233Z,101341.72
2022-07-30T20:30:15.571Z,101345.41
2022-07-30T20:32:51.344Z,101344.75
2022-07-30T20:35:20.068Z,101345.69
2022-07-30T20:37:55.365Z,101353.47
2022-07-30T20:40:23.067Z,101349.13
2022-07-30T20:42:49.823Z,101355.84
2022-07-30T20:45:16.447Z,101357.34
2022-07-30T20:47:43.809Z,101348.56
2022-07-30T20:50:14.348Z,101351.91
2022-07-30T20:52:46.657Z,101355.47
2022-07-30T20:55:16.276Z,101357.97
2022-07-30T20:57:57.229Z,101354.84
2022-07-30T21:00:30.049Z,101352.34
2022-07-30T21:02:56.445Z,101353.31
2022-07-30T21:05:22.872Z,101347.31
2022-07-30T21:07:53.861Z,101350.88
2022-07-30T21:10:23.489Z,101352.91
2022-07-30T21:12:50.776Z,101354.16
2022-07-30T21:15:24.167Z,101355.25
2022-07-30T21:17:51.165Z,101351.66
2022-07-30T21:20:27.883Z,101355.25
2022-07-30T21:22:55.724Z,101350.38
2022-07-30T21:25:23.423Z,101356.41
2022-07-30T21:27:59.265Z,101356.69
2022-07-30T21:30:26.332Z,101358.94
2022-07-30T21:32:53.144Z,101357.31
2022-07-30T21:35:19.809Z,101356.69
2022-07-30T21:37:46.189Z,101353.91
2022-07-30T21:40:13.724Z,101350.69
2022-07-30T21:42:48.639Z,101351.66
2022-07-30T21:45:15.398Z,101353.84
2022-07-30T21:47:47.627Z,101358.00
2022-07-30T21:50:16.138Z,101355.22
2022-07-30T21:52:43.167Z,101362.88
2022-07-30T21:55:09.785Z,101369.88
2022-07-30T21:57:40.279Z,101367.72
2022-07-30T22:00:14.678Z,101371.28
2022-07-30T22:02:53.050Z,101370.50
2022-07-30T22:05:20.288Z,101366.53
2022-07-30T22:07:49.798Z,101368.59
2022-07-30T22:10:21.547Z,101368.81
2022-07-30T22:12:48.471Z,101370.72
2022-07-30T22:15:15.106Z,101373.41
2022-07-30T22:17:57.980Z,101368.44
2022-07-30T22:20:27.919Z,101377.25
2022-07-30T22:22:55.213Z,101375.75
2022-07-30T22:25:21.969Z,101366.44
2022-07-30T22:27:56.059Z,101374.59
2022-07-30T22:30:26.526Z,101372.78
2022-07-30T22:32:53.681Z,101374.69
2022-07-30T22:35:32.008Z,101372.78
2022-07-30T22:38:00.513Z,101383.47
2022-07-30T22:40:26.919Z,101381.88
2022-07-30T22:42:53.329Z,101380.06
2022-07-30T22:45:34.059Z,101383.69
2022-07-30T22:50:53.981Z,101372.03
2022-07-30T22:54:03.708Z,101372.31
2022-07-30T22:56:14.012Z,101367.97
2022-07-30T22:58:40.590Z,101370.50
2022-07-30T23:01:09.070Z,101367.91
2022-07-30T23:03:37.303Z,101368.94
2022-07-30T23:06:04.044Z,101370.94
2022-07-30T23:08:30.938Z,101373.34
2022-07-30T23:10:59.503Z,101371.06
2022-07-30T23:12:16.598Z,101322.09
2022-07-30T23:12:34.483Z,101382.63
2022-07-30T23:13:26.004Z,101361.31
2022-07-30T23:15:52.459Z,101360.44
2022-07-30T23:18:18.888Z,101360.59
2022-07-30T23:20:45.233Z,101362.97
2022-07-30T23:23:11.700Z,101357.66
2022-07-30T23:25:39.293Z,101361.91
2022-07-30T23:28:06.199Z,101353.22
2022-07-30T23:30:34.035Z,101349.63
2022-07-30T23:33:01.090Z,101358.44
2022-07-30T23:35:27.535Z,101354.44
2022-07-30T23:37:53.903Z,101349.97
2022-07-30T23:40:20.268Z,101356.16
2022-07-30T23:42:49.849Z,101355.63
2022-07-30T23:45:17.079Z,101357.13
2022-07-30T23:48:00.799Z,101353.75
2022-07-30T23:50:28.938Z,101357.19
2022-07-30T23:52:55.638Z,101353.28
2022-07-30T23:55:22.108Z,101354.31
2022-07-30T23:57:48.505Z,101357.16
